sensor_id;sensor_type;location;lat;lon;timestamp;pressure;altitude;pressure_sealevel;temperature;humidity
48555;BME280;34336;48.270;16.716;2023-09-07T00:01:00;109325.25;;;18.16;92.00
48555;BME280;34336;48.270;16.716;2023-09-07T00:03:31;109325.25;;;18.16;91.48
48555;BME280;34336;48.270;16.716;2023-09-07T00:05:58;109325.25;;;18.16;91.45
48555;BME280;34336;48.270;16.716;2023-09-07T00:08:24;109325.25;;;18.16;91.42
48555;BME280;34336;48.270;16.716;2023-09-07T00:10:51;109325.25;;;18.16;91.39
48555;BME280;34336;48.270;16.716;2023-09-07T00:13:18;109325.25;;;18.16;91.36
48555;BME280;34336;48.270;16.716;2023-09-07T00:15:45;109325.25;;;18.16;91.04
48555;BME280;34336;48.270;16.716;2023-09-07T00:18:12;109325.25;;;18.16;90.63
48555;BME280;34336;48.270;16.716;2023-09-07T00:20:38;109325.25;;;18.16;90.57
48555;BME280;34336;48.270;16.716;2023-09-07T00:23:07;109325.25;;;18.16;90.84
48555;BME280;34336;48.270;16.716;2023-09-07T00:25:33;109325.25;;;18.16;90.73
48555;BME280;34336;48.270;16.716;2023-09-07T00:28:00;109325.25;;;18.16;91.16
48555;BME280;34336;48.270;16.716;2023-09-07T00:30:27;109325.25;;;18.16;90.75
48555;BME280;34336;48.270;16.716;2023-09-07T00:32:53;109325.25;;;18.16;90.02
48555;BME280;34336;48.270;16.716;2023-09-07T00:35:20;109325.25;;;18.16;89.84
48555;BME280;34336;48.270;16.716;2023-09-07T00:37:47;109325.25;;;18.16;90.24
48555;BME280;34336;48.270;16.716;2023-09-07T00:40:14;109325.25;;;18.16;89.82
48555;BME280;34336;48.270;16.716;2023-09-07T00:42:41;109325.25;;;18.16;89.41
48555;BME280;34336;48.270;16.716;2023-09-07T00:45:08;109325.25;;;18.16;89.38
48555;BME280;34336;48.270;16.716;2023-09-07T00:47:35;109325.25;;;18.16;89.23
48555;BME280;34336;48.270;16.716;2023-09-07T00:50:05;109325.25;;;18.16;89.39
48555;BME280;34336;48.270;16.716;2023-09-07T00:52:34;109325.25;;;18.16;88.98
48555;BME280;34336;48.270;16.716;2023-09-07T00:55:02;109325.25;;;18.16;89.14
48555;BME280;34336;48.270;16.716;2023-09-07T00:57:32;109325.25;;;18.16;89.14
48555;BME280;34336;48.270;16.716;2023-09-07T00:59:59;109325.25;;;18.16;89.16
48555;BME280;34336;48.270;16.716;2023-09-07T01:02:27;109325.25;;;18.16;89.36
48555;BME280;34336;48.270;16.716;2023-09-07T01:04:57;109325.25;;;18.16;90.18
48555;BME280;34336;48.270;16.716;2023-09-07T01:07:25;109325.25;;;18.16;90.38
48555;BME280;34336;48.270;16.716;2023-09-07T01:09:57;109325.25;;;18.16;90.05
48555;BME280;34336;48.270;16.716;2023-09-07T01:12:26;109325.25;;;18.16;89.32
48555;BME280;34336;48.270;16.716;2023-09-07T01:14:53;109325.25;;;18.16;88.62
48555;BME280;34336;48.270;16.716;2023-09-07T01:17:20;109325.25;;;18.16;89.08
48555;BME280;34336;48.270;16.716;2023-09-07T01:19:52;109325.25;;;18.16;90.22
48555;BME280;34336;48.270;16.716;2023-09-07T01:22:20;109325.25;;;18.16;91.53
48555;BME280;34336;48.270;16.716;2023-09-07T01:24:51;109325.25;;;18.16;92.05
48555;BME280;34336;48.270;16.716;2023-09-07T01:27:19;109325.25;;;18.16;92.91
48555;BME280;34336;48.270;16.716;2023-09-07T01:29:45;109325.25;;;18.16;93.59
48555;BME280;34336;48.270;16.716;2023-09-07T01:32:12;109325.25;;;18.16;94.14
48555;BME280;34336;48.270;16.716;2023-09-07T01:34:40;109325.25;;;18.16;94.66
48555;BME280;34336;48.270;16.716;2023-09-07T01:37:07;109325.25;;;18.16;94.85
48555;BME280;34336;48.270;16.716;2023-09-07T01:39:35;109325.25;;;18.16;94.98
48555;BME280;34336;48.270;16.716;2023-09-07T01:42:02;109325.25;;;18.16;95.01
48555;BME280;34336;48.270;16.716;2023-09-07T01:44:28;109325.25;;;18.16;94.62
48555;BME280;34336;48.270;16.716;2023-09-07T01:46:56;109325.25;;;18.16;93.96
48555;BME280;34336;48.270;16.716;2023-09-07T01:49:23;109325.25;;;18.16;93.14
48555;BME280;34336;48.270;16.716;2023-09-07T01:51:53;109325.25;;;18.16;92.61
48555;BME280;34336;48.270;16.716;2023-09-07T01:54:21;109325.25;;;18.16;92.32
48555;BME280;34336;48.270;16.716;2023-09-07T01:56:49;109325.25;;;18.16;92.38
48555;BME280;34336;48.270;16.716;2023-09-07T01:59:15;109325.25;;;18.16;92.11
48555;BME280;34336;48.270;16.716;2023-09-07T02:01:42;109325.25;;;18.16;91.79
48555;BME280;34336;48.270;16.716;2023-09-07T02:04:09;109325.25;;;18.16;91.66
48555;BME280;34336;48.270;16.716;2023-09-07T02:06:36;109325.25;;;18.16;92.27
48555;BME280;34336;48.270;16.716;2023-09-07T02:09:02;109325.25;;;18.16;92.69
48555;BME280;34336;48.270;16.716;2023-09-07T02:11:31;109325.25;;;18.16;93.24
48555;BME280;34336;48.270;16.716;2023-09-07T02:13:57;109325.25;;;18.16;93.59
48555;BME280;34336;48.270;16.716;2023-09-07T02:16:24;109325.25;;;18.16;93.22
48555;BME280;34336;48.270;16.716;2023-09-07T02:19:00;109325.25;;;18.16;93.10
48555;BME280;34336;48.270;16.716;2023-09-07T02:21:27;109325.25;;;18.16;92.94
48555;BME280;34336;48.270;16.716;2023-09-07T02:23:54;109325.25;;;18.16;92.35
48555;BME280;34336;48.270;16.716;2023-09-07T02:26:21;109325.25;;;18.16;92.44
48555;BME280;34336;48.270;16.716;2023-09-07T02:28:48;109325.25;;;18.16;91.89
48555;BME280;34336;48.270;16.716;2023-09-07T02:31:14;109325.25;;;18.16;92.14
48555;BME280;34336;48.270;16.716;2023-09-07T02:33:41;109325.25;;;18.16;92.41
48555;BME280;34336;48.270;16.716;2023-09-07T02:36:08;109325.25;;;18.16;92.82
48555;BME280;34336;48.270;16.716;2023-09-07T02:38:35;109325.25;;;18.16;93.70
48555;BME280;34336;48.270;16.716;2023-09-07T02:41:02;109325.25;;;18.16;94.54
48555;BME280;34336;48.270;16.716;2023-09-07T02:43:29;109325.25;;;18.16;95.09
48555;BME280;34336;48.270;16.716;2023-09-07T02:45:57;109325.25;;;18.16;95.43
48555;BME280;34336;48.270;16.716;2023-09-07T02:48:24;109325.25;;;18.16;95.62
48555;BME280;34336;48.270;16.716;2023-09-07T02:50:54;109325.25;;;18.16;96.05
48555;BME280;34336;48.270;16.716;2023-09-07T02:53:25;109325.25;;;18.16;96.04
48555;BME280;34336;48.270;16.716;2023-09-07T02:55:52;109325.25;;;18.16;96.03
48555;BME280;34336;48.270;16.716;2023-09-07T02:58:19;109325.25;;;18.16;96.17
48555;BME280;34336;48.270;16.716;2023-09-07T03:00:46;109325.25;;;18.16;96.11
48555;BME280;34336;48.270;16.716;2023-09-07T03:03:16;109325.25;;;18.16;96.34
48555;BME280;34336;48.270;16.716;2023-09-07T03:05:44;109325.25;;;18.16;96.26
48555;BME280;34336;48.270;16.716;2023-09-07T03:08:12;109325.25;;;18.16;96.24
48555;BME280;34336;48.270;16.716;2023-09-07T03:10:40;109325.25;;;18.16;96.41
48555;BME280;34336;48.270;16.716;2023-09-07T03:13:08;109325.25;;;18.16;96.24
48555;BME280;34336;48.270;16.716;2023-09-07T03:15:35;109325.25;;;18.16;96.22
48555;BME280;34336;48.270;16.716;2023-09-07T03:18:06;109325.25;;;18.16;95.99
48555;BME280;34336;48.270;16.716;2023-09-07T03:20:34;109325.25;;;18.16;96.15
48555;BME280;34336;48.270;16.716;2023-09-07T03:23:02;109325.25;;;18.16;96.07
48555;BME280;34336;48.270;16.716;2023-09-07T03:25:30;109325.25;;;18.16;95.94
48555;BME280;34336;48.270;16.716;2023-09-07T03:27:57;109325.25;;;18.16;96.27
48555;BME280;34336;48.270;16.716;2023-09-07T03:30:24;109325.25;;;18.16;96.26
48555;BME280;34336;48.270;16.716;2023-09-07T03:32:53;109325.25;;;18.16;96.03
48555;BME280;34336;48.270;16.716;2023-09-07T03:35:20;109325.25;;;18.16;96.19
48555;BME280;34336;48.270;16.716;2023-09-07T03:37:47;109325.25;;;18.16;96.10
48555;BME280;34336;48.270;16.716;2023-09-07T03:40:13;109325.25;;;18.16;96.33
48555;BME280;34336;48.270;16.716;2023-09-07T03:42:41;109325.25;;;18.16;96.39
48555;BME280;34336;48.270;16.716;2023-09-07T03:45:10;109325.25;;;18.16;96.41
48555;BME280;34336;48.270;16.716;2023-09-07T03:47:37;109325.25;;;18.16;96.23
48555;BME280;34336;48.270;16.716;2023-09-07T03:50:05;109325.25;;;18.16;95.99
48555;BME280;34336;48.270;16.716;2023-09-07T03:52:32;109325.25;;;18.16;96.01
48555;BME280;34336;48.270;16.716;2023-09-07T03:55:01;109325.25;;;18.16;95.70
48555;BME280;34336;48.270;16.716;2023-09-07T03:57:29;109325.25;;;18.16;95.07
48555;BME280;34336;48.270;16.716;2023-09-07T03:59:56;109325.25;;;18.16;94.83
48555;BME280;34336;48.270;16.716;2023-09-07T04:02:24;109325.25;;;18.16;94.84
48555;BME280;34336;48.270;16.716;2023-09-07T04:04:52;109325.25;;;18.16;94.94
48555;BME280;34336;48.270;16.716;2023-09-07T04:07:19;109325.25;;;18.16;95.07
48555;BME280;34336;48.270;16.716;2023-09-07T04:09:47;109325.25;;;18.16;95.33
48555;BME280;34336;48.270;16.716;2023-09-07T04:12:16;109325.25;;;18.16;95.14
48555;BME280;34336;48.270;16.716;2023-09-07T04:14:43;109325.25;;;18.16;94.90
48555;BME280;34336;48.270;16.716;2023-09-07T04:17:11;109325.25;;;18.16;94.79
48555;BME280;34336;48.270;16.716;2023-09-07T04:19:38;109325.25;;;18.16;94.89
48555;BME280;34336;48.270;16.716;2023-09-07T04:22:05;109325.25;;;18.16;95.02
48555;BME280;34336;48.270;16.716;2023-09-07T04:24:32;109325.25;;;18.16;95.28
48555;BME280;34336;48.270;16.716;2023-09-07T04:27:00;109325.25;;;18.16;95.78
48555;BME280;34336;48.270;16.716;2023-09-07T04:29:28;109325.25;;;18.16;95.73
48555;BME280;34336;48.270;16.716;2023-09-07T04:31:56;109325.25;;;18.16;95.52
48555;BME280;34336;48.270;16.716;2023-09-07T04:34:23;109325.25;;;18.16;95.41
48555;BME280;34336;48.270;16.716;2023-09-07T04:36:51;109325.25;;;18.16;94.95
48555;BME280;34336;48.270;16.716;2023-09-07T04:39:19;109325.25;;;18.16;94.30
48555;BME280;34336;48.270;16.716;2023-09-07T04:41:46;109325.25;;;18.16;94.31
48555;BME280;34336;48.270;16.716;2023-09-07T04:44:13;109325.25;;;18.16;93.87
48555;BME280;34336;48.270;16.716;2023-09-07T04:46:41;109325.25;;;18.16;92.16
48555;BME280;34336;48.270;16.716;2023-09-07T04:49:09;109325.25;;;18.16;90.53
48555;BME280;34336;48.270;16.716;2023-09-07T04:51:36;109325.25;;;18.16;84.46
48555;BME280;34336;48.270;16.716;2023-09-07T04:54:03;109325.25;;;18.16;70.34
48555;BME280;34336;48.270;16.716;2023-09-07T04:56:30;109325.25;;;18.16;64.24
48555;BME280;34336;48.270;16.716;2023-09-07T04:58:57;109325.25;;;18.16;60.55
48555;BME280;34336;48.270;16.716;2023-09-07T05:01:25;109325.25;;;18.16;56.21
48555;BME280;34336;48.270;16.716;2023-09-07T05:03:54;109325.25;;;18.16;54.41
48555;BME280;34336;48.270;16.716;2023-09-07T05:06:22;109325.25;;;18.16;53.72
48555;BME280;34336;48.270;16.716;2023-09-07T05:08:51;109325.25;;;18.16;51.85
48555;BME280;34336;48.270;16.716;2023-09-07T05:11:17;109325.25;;;18.16;49.62
48555;BME280;34336;48.270;16.716;2023-09-07T05:13:44;109325.25;;;18.16;46.50
48555;BME280;34336;48.270;16.716;2023-09-07T05:16:11;109325.25;;;18.16;44.17
48555;BME280;34336;48.270;16.716;2023-09-07T05:18:41;109325.25;;;18.16;46.21
48555;BME280;34336;48.270;16.716;2023-09-07T05:21:16;109325.25;;;18.16;44.57
48555;BME280;34336;48.270;16.716;2023-09-07T05:23:43;109325.25;;;18.16;45.33
48555;BME280;34336;48.270;16.716;2023-09-07T05:26:10;109325.25;;;18.16;45.55
48555;BME280;34336;48.270;16.716;2023-09-07T05:28:39;109325.25;;;18.16;44.36
48555;BME280;34336;48.270;16.716;2023-09-07T05:31:07;109325.25;;;18.16;47.05
48555;BME280;34336;48.270;16.716;2023-09-07T05:33:35;109325.25;;;18.16;47.90
48555;BME280;34336;48.270;16.716;2023-09-07T05:36:02;109325.25;;;18.16;47.36
48555;BME280;34336;48.270;16.716;2023-09-07T05:38:29;109325.25;;;18.16;48.09
48555;BME280;34336;48.270;16.716;2023-09-07T05:40:59;109325.25;;;18.16;49.73
48555;BME280;34336;48.270;16.716;2023-09-07T05:43:26;109325.25;;;18.16;45.78
48555;BME280;34336;48.270;16.716;2023-09-07T05:45:53;109325.25;;;18.16;43.80
48555;BME280;34336;48.270;16.716;2023-09-07T05:48:20;109325.25;;;18.16;47.50
48555;BME280;34336;48.270;16.716;2023-09-07T05:50:48;109325.25;;;18.16;48.55
48555;BME280;34336;48.270;16.716;2023-09-07T05:53:15;109325.25;;;18.16;48.71
48555;BME280;34336;48.270;16.716;2023-09-07T05:55:42;109325.25;;;18.16;45.54
48555;BME280;34336;48.270;16.716;2023-09-07T05:58:08;109325.25;;;18.16;43.06
48555;BME280;34336;48.270;16.716;2023-09-07T06:00:39;109325.25;;;18.16;46.63
48555;BME280;34336;48.270;16.716;2023-09-07T06:03:07;109325.25;;;18.16;47.01
48555;BME280;34336;48.270;16.716;2023-09-07T06:05:37;109325.25;;;18.16;46.43
48555;BME280;34336;48.270;16.716;2023-09-07T06:08:07;109325.25;;;18.16;48.24
48555;BME280;34336;48.270;16.716;2023-09-07T06:10:35;109325.25;;;18.16;44.70
48555;BME280;34336;48.270;16.716;2023-09-07T06:13:03;109325.25;;;18.16;44.98
48555;BME280;34336;48.270;16.716;2023-09-07T06:15:31;109325.25;;;18.16;42.02
48555;BME280;34336;48.270;16.716;2023-09-07T06:17:58;109325.25;;;18.16;42.37
48555;BME280;34336;48.270;16.716;2023-09-07T06:20:25;109325.25;;;18.16;40.91
48555;BME280;34336;48.270;16.716;2023-09-07T06:22:54;109325.25;;;18.16;40.92
48555;BME280;34336;48.270;16.716;2023-09-07T06:25:22;109325.25;;;18.16;38.42
48555;BME280;34336;48.270;16.716;2023-09-07T06:27:50;109325.25;;;18.16;39.66
48555;BME280;34336;48.270;16.716;2023-09-07T06:30:18;109325.25;;;18.16;44.35
48555;BME280;34336;48.270;16.716;2023-09-07T06:32:44;109325.25;;;18.16;43.41
48555;BME280;34336;48.270;16.716;2023-09-07T06:35:11;109325.25;;;18.16;41.82
48555;BME280;34336;48.270;16.716;2023-09-07T06:37:38;109325.25;;;18.16;37.39
48555;BME280;34336;48.270;16.716;2023-09-07T06:40:09;109325.25;;;18.16;36.17
48555;BME280;34336;48.270;16.716;2023-09-07T06:42:37;109325.25;;;18.16;34.53
48555;BME280;34336;48.270;16.716;2023-09-07T06:45:10;109325.25;;;18.16;35.89
48555;BME280;34336;48.270;16.716;2023-09-07T06:47:37;109325.25;;;18.16;37.07
48555;BME280;34336;48.270;16.716;2023-09-07T06:50:06;109325.25;;;18.16;38.19
48555;BME280;34336;48.270;16.716;2023-09-07T06:52:33;109325.25;;;18.16;39.01
48555;BME280;34336;48.270;16.716;2023-09-07T06:55:01;109325.25;;;18.16;39.02
48555;BME280;34336;48.270;16.716;2023-09-07T06:57:28;109325.25;;;18.16;39.39
48555;BME280;34336;48.270;16.716;2023-09-07T06:59:56;109325.25;;;18.16;39.42
48555;BME280;34336;48.270;16.716;2023-09-07T07:02:23;109325.25;;;18.16;39.00
48555;BME280;34336;48.270;16.716;2023-09-07T07:04:50;109325.25;;;18.16;38.62
48555;BME280;34336;48.270;16.716;2023-09-07T07:07:17;109325.25;;;18.16;37.32
48555;BME280;34336;48.270;16.716;2023-09-07T07:09:45;109325.25;;;18.16;35.98
48555;BME280;34336;48.270;16.716;2023-09-07T07:12:12;109325.25;;;18.16;35.48
48555;BME280;34336;48.270;16.716;2023-09-07T07:14:39;109325.25;;;18.16;35.48
48555;BME280;34336;48.270;16.716;2023-09-07T07:17:06;109325.25;;;18.16;36.67
48555;BME280;34336;48.270;16.716;2023-09-07T07:19:34;109325.25;;;18.16;37.94
48555;BME280;34336;48.270;16.716;2023-09-07T07:22:03;109325.25;;;18.16;37.04
48555;BME280;34336;48.270;16.716;2023-09-07T07:24:31;109325.25;;;18.16;36.99
48555;BME280;34336;48.270;16.716;2023-09-07T07:26:58;109325.25;;;18.16;36.83
48555;BME280;34336;48.270;16.716;2023-09-07T07:29:27;109325.25;;;18.16;36.88
48555;BME280;34336;48.270;16.716;2023-09-07T07:31:58;109325.25;;;18.16;35.80
48555;BME280;34336;48.270;16.716;2023-09-07T07:34:25;109325.25;;;18.16;36.67
48555;BME280;34336;48.270;16.716;2023-09-07T07:36:54;109325.25;;;18.16;37.92
48555;BME280;34336;48.270;16.716;2023-09-07T07:39:22;109325.25;;;18.16;36.98
48555;BME280;34336;48.270;16.716;2023-09-07T07:41:49;109325.25;;;18.16;36.91
48555;BME280;34336;48.270;16.716;2023-09-07T07:44:16;109325.25;;;18.16;36.08
48555;BME280;34336;48.270;16.716;2023-09-07T07:46:44;109325.25;;;18.16;36.86
48555;BME280;34336;48.270;16.716;2023-09-07T07:49:12;109325.25;;;18.16;35.85
48555;BME280;34336;48.270;16.716;2023-09-07T07:51:41;109325.25;;;18.16;35.93
48555;BME280;34336;48.270;16.716;2023-09-07T07:54:08;109325.25;;;18.16;35.91
48555;BME280;34336;48.270;16.716;2023-09-07T07:56:35;109325.25;;;18.16;35.81
48555;BME280;34336;48.270;16.716;2023-09-07T07:59:02;109325.25;;;18.16;35.11
48555;BME280;34336;48.270;16.716;2023-09-07T08:01:30;109325.25;;;18.16;34.87
48555;BME280;34336;48.270;16.716;2023-09-07T08:03:58;109325.25;;;18.16;34.72
48555;BME280;34336;48.270;16.716;2023-09-07T08:06:29;109325.25;;;18.16;34.95
48555;BME280;34336;48.270;16.716;2023-09-07T08:08:56;109325.25;;;18.16;36.50
48555;BME280;34336;48.270;16.716;2023-09-07T08:11:24;109325.25;;;18.16;37.65
48555;BME280;34336;48.270;16.716;2023-09-07T08:13:53;109325.25;;;18.16;38.77
48555;BME280;34336;48.270;16.716;2023-09-07T08:16:19;109325.25;;;18.16;38.32
48555;BME280;34336;48.270;16.716;2023-09-07T08:18:46;109325.25;;;18.16;38.20
48555;BME280;34336;48.270;16.716;2023-09-07T08:21:15;109325.25;;;18.16;36.78
48555;BME280;34336;48.270;16.716;2023-09-07T08:23:42;109325.25;;;18.16;37.82
48555;BME280;34336;48.270;16.716;2023-09-07T08:26:09;109325.25;;;18.16;37.91
48555;BME280;34336;48.270;16.716;2023-09-07T08:28:38;109325.25;;;18.16;37.63
48555;BME280;34336;48.270;16.716;2023-09-07T08:31:05;109325.25;;;18.16;38.08
48555;BME280;34336;48.270;16.716;2023-09-07T08:33:32;109325.25;;;18.16;36.40
48555;BME280;34336;48.270;16.716;2023-09-07T08:35:59;109325.25;;;18.16;36.40
48555;BME280;34336;48.270;16.716;2023-09-07T08:38:28;109325.25;;;18.16;37.54
48555;BME280;34336;48.270;16.716;2023-09-07T08:41:01;109325.25;;;18.16;38.63
48555;BME280;34336;48.270;16.716;2023-09-07T08:43:30;109325.25;;;18.16;37.01
48555;BME280;34336;48.270;16.716;2023-09-07T08:46:05;109325.25;;;18.16;38.08
48555;BME280;34336;48.270;16.716;2023-09-07T08:48:36;109325.25;;;18.16;37.85
48555;BME280;34336;48.270;16.716;2023-09-07T08:51:04;109325.25;;;18.16;36.90
48555;BME280;34336;48.270;16.716;2023-09-07T08:53:33;109325.25;;;18.16;37.33
48555;BME280;34336;48.270;16.716;2023-09-07T08:56:01;109325.25;;;18.16;36.26
48555;BME280;34336;48.270;16.716;2023-09-07T08:58:28;109325.25;;;18.16;36.13
48555;BME280;34336;48.270;16.716;2023-09-07T09:00:55;109325.25;;;18.16;34.91
48555;BME280;34336;48.270;16.716;2023-09-07T09:03:34;109325.25;;;18.16;34.97
48555;BME280;34336;48.270;16.716;2023-09-07T09:06:03;109325.25;;;18.16;34.74
48555;BME280;34336;48.270;16.716;2023-09-07T09:08:40;109325.25;;;18.16;35.38
48555;BME280;34336;48.270;16.716;2023-09-07T09:11:07;109325.25;;;18.16;35.30
48555;BME280;34336;48.270;16.716;2023-09-07T09:13:34;109325.25;;;18.16;35.91
48555;BME280;34336;48.270;16.716;2023-09-07T09:16:03;109325.25;;;18.16;35.08
48555;BME280;34336;48.270;16.716;2023-09-07T09:18:30;109325.25;;;18.16;35.67
48555;BME280;34336;48.270;16.716;2023-09-07T09:20:58;109325.25;;;18.16;35.96
48555;BME280;34336;48.270;16.716;2023-09-07T09:23:35;109325.25;;;18.16;34.50
48555;BME280;34336;48.270;16.716;2023-09-07T09:26:03;109325.25;;;18.16;34.97
48555;BME280;34336;48.270;16.716;2023-09-07T09:28:32;109325.25;;;18.16;33.58
48555;BME280;34336;48.270;16.716;2023-09-07T09:31:01;109325.25;;;18.16;34.03
48555;BME280;34336;48.270;16.716;2023-09-07T09:33:32;109325.25;;;18.16;34.29
48555;BME280;34336;48.270;16.716;2023-09-07T09:36:00;109325.25;;;18.16;33.61
48555;BME280;34336;48.270;16.716;2023-09-07T09:38:27;109325.25;;;18.16;34.44
48555;BME280;34336;48.270;16.716;2023-09-07T09:40:54;109325.25;;;18.16;34.12
48555;BME280;34336;48.270;16.716;2023-09-07T09:43:22;109325.25;;;18.16;33.34
48555;BME280;34336;48.270;16.716;2023-09-07T09:45:49;109325.25;;;18.16;33.88
48555;BME280;34336;48.270;16.716;2023-09-07T09:48:19;109325.25;;;18.16;34.72
48555;BME280;34336;48.270;16.716;2023-09-07T09:50:48;109325.25;;;18.16;33.56
48555;BME280;34336;48.270;16.716;2023-09-07T09:53:16;109325.25;;;18.16;34.04
48555;BME280;34336;48.270;16.716;2023-09-07T09:55:49;109325.25;;;18.16;34.86
48555;BME280;34336;48.270;16.716;2023-09-07T09:58:16;109325.25;;;18.16;34.14
48555;BME280;34336;48.270;16.716;2023-09-07T10:00:48;109325.25;;;18.16;35.06
48555;BME280;34336;48.270;16.716;2023-09-07T10:03:23;109325.25;;;18.16;34.20
48555;BME280;34336;48.270;16.716;2023-09-07T10:05:53;109325.25;;;18.16;35.11
48555;BME280;34336;48.270;16.716;2023-09-07T10:08:20;109325.25;;;18.16;35.13
48555;BME280;34336;48.270;16.716;2023-09-07T10:10:52;109325.25;;;18.16;34.08
48555;BME280;34336;48.270;16.716;2023-09-07T10:13:31;109325.25;;;18.16;34.58
48555;BME280;34336;48.270;16.716;2023-09-07T10:16:03;109325.25;;;18.16;33.56
48555;BME280;34336;48.270;16.716;2023-09-07T10:18:37;109325.25;;;18.16;33.90
48555;BME280;34336;48.270;16.716;2023-09-07T10:21:05;109325.25;;;18.16;33.74
48555;BME280;34336;48.270;16.716;2023-09-07T10:23:41;109325.25;;;18.16;33.79
48555;BME280;34336;48.270;16.716;2023-09-07T10:26:17;109325.25;;;18.16;35.12
48555;BME280;34336;48.270;16.716;2023-09-07T10:28:44;109325.25;;;18.16;34.04
48555;BME280;34336;48.270;16.716;2023-09-07T10:31:16;109325.25;;;18.16;34.42
48555;BME280;34336;48.270;16.716;2023-09-07T10:33:44;109325.25;;;18.16;35.12
48555;BME280;34336;48.270;16.716;2023-09-07T10:36:25;109325.25;;;18.16;34.30
48555;BME280;34336;48.270;16.716;2023-09-07T10:38:54;109325.25;;;18.16;34.56
48555;BME280;34336;48.270;16.716;2023-09-07T10:41:22;109325.25;;;18.16;34.30
48555;BME280;34336;48.270;16.716;2023-09-07T10:43:52;109325.25;;;18.16;33.47
48555;BME280;34336;48.270;16.716;2023-09-07T10:46:21;109325.25;;;18.16;34.94
48555;BME280;34336;48.270;16.716;2023-09-07T10:48:51;109325.25;;;18.16;34.78
48555;BME280;34336;48.270;16.716;2023-09-07T10:51:19;109325.25;;;18.16;34.94
48555;BME280;34336;48.270;16.716;2023-09-07T10:53:46;109325.25;;;18.16;34.75
48555;BME280;34336;48.270;16.716;2023-09-07T10:56:13;109325.25;;;18.16;34.19
48555;BME280;34336;48.270;16.716;2023-09-07T10:58:40;109325.25;;;18.16;35.38
48555;BME280;34336;48.270;16.716;2023-09-07T11:01:09;109325.25;;;18.16;34.19
48555;BME280;34336;48.270;16.716;2023-09-07T11:03:37;109325.25;;;18.16;35.12
48555;BME280;34336;48.270;16.716;2023-09-07T11:06:11;109325.25;;;18.16;34.05
48555;BME280;34336;48.270;16.716;2023-09-07T11:08:39;109325.25;;;18.16;35.08
48555;BME280;34336;48.270;16.716;2023-09-07T11:11:08;109325.25;;;18.16;33.91
48555;BME280;34336;48.270;16.716;2023-09-07T11:13:35;109325.25;;;18.16;33.75
48555;BME280;34336;48.270;16.716;2023-09-07T11:16:02;109325.25;;;18.16;34.53
48555;BME280;34336;48.270;16.716;2023-09-07T11:18:30;109325.25;;;18.16;33.36
48555;BME280;34336;48.270;16.716;2023-09-07T11:20:57;109325.25;;;18.16;33.96
48555;BME280;34336;48.270;16.716;2023-09-07T11:23:24;109325.25;;;18.16;34.14
48555;BME280;34336;48.270;16.716;2023-09-07T11:25:51;109325.25;;;18.16;34.68
48555;BME280;34336;48.270;16.716;2023-09-07T11:28:19;109325.25;;;18.16;34.24
48555;BME280;34336;48.270;16.716;2023-09-07T11:30:53;109325.25;;;18.16;34.76
48555;BME280;34336;48.270;16.716;2023-09-07T11:33:22;109325.25;;;18.16;34.98
48555;BME280;34336;48.270;16.716;2023-09-07T11:35:49;109325.25;;;18.16;34.85
48555;BME280;34336;48.270;16.716;2023-09-07T11:38:17;109325.25;;;18.16;35.15
48555;BME280;34336;48.270;16.716;2023-09-07T11:40:44;109325.25;;;18.16;34.77
48555;BME280;34336;48.270;16.716;2023-09-07T11:43:15;109325.25;;;18.16;35.48
48555;BME280;34336;48.270;16.716;2023-09-07T11:45:43;109325.25;;;18.16;34.67
48555;BME280;34336;48.270;16.716;2023-09-07T11:48:10;109325.25;;;18.16;34.96
48555;BME280;34336;48.270;16.716;2023-09-07T11:50:39;109325.25;;;18.16;34.50
48555;BME280;34336;48.270;16.716;2023-09-07T11:53:07;109325.25;;;18.16;36.35
48555;BME280;34336;48.270;16.716;2023-09-07T11:55:34;109325.25;;;18.16;34.64
48555;BME280;34336;48.270;16.716;2023-09-07T11:58:02;109325.25;;;18.16;34.85
48555;BME280;34336;48.270;16.716;2023-09-07T12:00:29;109325.25;;;18.16;35.25
48555;BME280;34336;48.270;16.716;2023-09-07T12:02:58;109325.25;;;18.16;36.01
48555;BME280;34336;48.270;16.716;2023-09-07T12:05:26;109325.25;;;18.16;34.38
48555;BME280;34336;48.270;16.716;2023-09-07T12:07:53;109325.25;;;18.16;34.61
48555;BME280;34336;48.270;16.716;2023-09-07T12:10:20;109325.25;;;18.16;34.79
48555;BME280;34336;48.270;16.716;2023-09-07T12:12:47;109325.25;;;18.16;34.48
48555;BME280;34336;48.270;16.716;2023-09-07T12:15:14;109325.25;;;18.16;33.87
48555;BME280;34336;48.270;16.716;2023-09-07T12:17:41;109325.25;;;18.16;35.11
48555;BME280;34336;48.270;16.716;2023-09-07T12:20:09;109325.25;;;18.16;34.20
48555;BME280;34336;48.270;16.716;2023-09-07T12:22:37;109325.25;;;18.16;34.21
48555;BME280;34336;48.270;16.716;2023-09-07T12:25:05;109325.25;;;18.16;34.28
48555;BME280;34336;48.270;16.716;2023-09-07T12:27:41;109325.25;;;18.16;33.90
48555;BME280;34336;48.270;16.716;2023-09-07T12:30:18;109325.25;;;18.16;34.02
48555;BME280;34336;48.270;16.716;2023-09-07T12:32:47;109325.25;;;18.16;33.90
48555;BME280;34336;48.270;16.716;2023-09-07T12:35:14;109325.25;;;18.16;33.80
48555;BME280;34336;48.270;16.716;2023-09-07T12:37:42;109325.25;;;18.16;33.81
48555;BME280;34336;48.270;16.716;2023-09-07T12:40:09;109325.25;;;18.16;33.61
48555;BME280;34336;48.270;16.716;2023-09-07T12:42:44;109325.25;;;18.16;34.07
48555;BME280;34336;48.270;16.716;2023-09-07T12:45:11;109325.25;;;18.16;33.62